Aérodrome :
LOGIN :

S'inscrire | Disclaimer

   EN    FR    IT 

 










Légende :    VFR   VFR Marginal   IFR   IFR Intensif   IFR Très Intensif
Visi : 
Plafond : 
>= 8 km
>= 3000ft
5 à 8 km
1000 à 3000 ft
1500m à 5 km
500 à 1000 ft
800 à 1500m
200 à 500 ft
< 800m
< 200 ft
Symboles :   Orages  Brouillard  Fortes neiges  Fortes précipitations  Vent > 20 kt
SIGMETs :   Divers  Orages  Givrage  Turbulence  Onde Orograph.  Cendres Volcan.






- Altitude de l'aérodrome : 144 ft
- Code IATA : PGF


LFMP - Perpignan

DERNIER METAR :
  • 281730Z AUTO 06004KT 040V100 CAVOK 21/12 Q1019 NOSIG

METARs EXPIRÉS :
  • 281700Z AUTO 11003KT 070V140 CAVOK 21/12 Q1019 NOSIG
  • 281630Z AUTO 13005KT CAVOK 21/12 Q1019 NOSIG
  • 281600Z AUTO 12005KT 080V150 CAVOK 22/11 Q1018 NOSIG
  • 281530Z AUTO 12007KT CAVOK 23/11 Q1019 NOSIG
  • 281500Z AUTO 13007KT 090V160 CAVOK 23/11 Q1019 NOSIG

TAF TAF LFMP
Valide du 28 à 15h jusqu'au 29 à 15h UTC


281400Z 2815/2915 09008KT CAVOK
BECMG 2816/2818 VRB03KT
BECMG 2821/2823 31012KT
TEMPO 2901/2915 31017G28KT
ATIS : +33 4 68 63 75 12



MET'MAP, la Météo Aéronautique d'un coup d'oeil ! - Copyright ORBIFLY Décembre 2007 - Disclaimer

ORBIFLY MET'MAP TEAM :

Programmation & Développement : Alexandra Zaïnal
Sur une idée originale de : Baudouin d'Aumeries
Assistance à la programmation : Marc-Olivier Méhu
Soutien technique & logistique : Manuel Goepfert

Contact : metmap@orbifly.com




SOURCES & CREDITS :

   NOAA